sensor_id;sensor_type;location;lat;lon;timestamp;temperature;humidity
52030;DHT22;38043;53.224;6.580;2023-05-19T00:02:16;8.20;99.90
52030;DHT22;38043;53.224;6.580;2023-05-19T00:04:45;8.20;99.90
52030;DHT22;38043;53.224;6.580;2023-05-19T00:07:12;8.10;99.90
52030;DHT22;38043;53.224;6.580;2023-05-19T00:09:40;8.10;99.90
52030;DHT22;38043;53.224;6.580;2023-05-19T00:12:06;8.10;99.90
52030;DHT22;38043;53.224;6.580;2023-05-19T00:14:31;8.10;99.90
52030;DHT22;38043;53.224;6.580;2023-05-19T00:16:57;8.20;99.90
52030;DHT22;38043;53.224;6.580;2023-05-19T00:19:23;8.20;99.90
52030;DHT22;38043;53.224;6.580;2023-05-19T00:21:49;8.20;99.90
52030;DHT22;38043;53.224;6.580;2023-05-19T00:24:15;8.20;99.90
52030;DHT22;38043;53.224;6.580;2023-05-19T00:26:40;8.20;99.90
52030;DHT22;38043;53.224;6.580;2023-05-19T00:29:06;8.20;99.90
52030;DHT22;38043;53.224;6.580;2023-05-19T00:31:31;8.20;99.90
52030;DHT22;38043;53.224;6.580;2023-05-19T00:33:58;8.20;99.90
52030;DHT22;38043;53.224;6.580;2023-05-19T00:36:23;8.20;99.90
52030;DHT22;38043;53.224;6.580;2023-05-19T00:38:49;8.30;99.90
52030;DHT22;38043;53.224;6.580;2023-05-19T00:41:15;8.30;99.90
52030;DHT22;38043;53.224;6.580;2023-05-19T00:43:41;8.30;99.90
52030;DHT22;38043;53.224;6.580;2023-05-19T00:46:06;9.00;99.90
52030;DHT22;38043;53.224;6.580;2023-05-19T00:48:32;8.30;99.90
52030;DHT22;38043;53.224;6.580;2023-05-19T00:50:58;8.30;99.90
52030;DHT22;38043;53.224;6.580;2023-05-19T00:53:28;8.30;99.90
52030;DHT22;38043;53.224;6.580;2023-05-19T00:55:54;8.40;99.90
52030;DHT22;38043;53.224;6.580;2023-05-19T00:58:20;8.30;99.90
52030;DHT22;38043;53.224;6.580;2023-05-19T01:00:48;8.30;99.90
52030;DHT22;38043;53.224;6.580;2023-05-19T01:03:14;8.30;99.90
52030;DHT22;38043;53.224;6.580;2023-05-19T01:05:46;8.30;99.90
52030;DHT22;38043;53.224;6.580;2023-05-19T01:08:18;8.30;99.90
52030;DHT22;38043;53.224;6.580;2023-05-19T01:10:43;8.30;99.90
52030;DHT22;38043;53.224;6.580;2023-05-19T01:13:09;8.30;99.90
52030;DHT22;38043;53.224;6.580;2023-05-19T01:15:39;8.30;99.90
52030;DHT22;38043;53.224;6.580;2023-05-19T01:18:10;8.20;99.90
52030;DHT22;38043;53.224;6.580;2023-05-19T01:20:39;8.20;99.90
52030;DHT22;38043;53.224;6.580;2023-05-19T01:23:41;8.30;99.90
52030;DHT22;38043;53.224;6.580;2023-05-19T01:31:13;8.20;99.90
52030;DHT22;38043;53.224;6.580;2023-05-19T01:33:40;8.20;99.90
52030;DHT22;38043;53.224;6.580;2023-05-19T01:36:07;8.20;99.90
52030;DHT22;38043;53.224;6.580;2023-05-19T01:38:35;8.40;99.90
52030;DHT22;38043;53.224;6.580;2023-05-19T01:41:02;8.20;99.90
52030;DHT22;38043;53.224;6.580;2023-05-19T01:43:28;8.10;99.90
52030;DHT22;38043;53.224;6.580;2023-05-19T01:45:54;8.10;99.90
52030;DHT22;38043;53.224;6.580;2023-05-19T01:48:20;8.10;99.90
52030;DHT22;38043;53.224;6.580;2023-05-19T01:50:46;8.10;99.90
52030;DHT22;38043;53.224;6.580;2023-05-19T01:53:11;8.10;99.90
52030;DHT22;38043;53.224;6.580;2023-05-19T01:55:41;8.00;99.90
52030;DHT22;38043;53.224;6.580;2023-05-19T02:00:53;8.00;99.90
52030;DHT22;38043;53.224;6.580;2023-05-19T02:06:26;8.00;99.90
52030;DHT22;38043;53.224;6.580;2023-05-19T02:09:11;8.00;99.90
52030;DHT22;38043;53.224;6.580;2023-05-19T02:16:42;8.00;99.90
52030;DHT22;38043;53.224;6.580;2023-05-19T02:19:18;8.00;99.90
52030;DHT22;38043;53.224;6.580;2023-05-19T02:21:44;8.00;99.90
52030;DHT22;38043;53.224;6.580;2023-05-19T02:24:10;8.00;99.90
52030;DHT22;38043;53.224;6.580;2023-05-19T02:26:35;7.90;99.90
52030;DHT22;38043;53.224;6.580;2023-05-19T02:29:01;8.00;99.90
52030;DHT22;38043;53.224;6.580;2023-05-19T02:31:26;7.90;99.90
52030;DHT22;38043;53.224;6.580;2023-05-19T02:33:52;7.90;99.90
52030;DHT22;38043;53.224;6.580;2023-05-19T02:36:17;7.90;99.90
52030;DHT22;38043;53.224;6.580;2023-05-19T02:38:43;7.90;99.90
52030;DHT22;38043;53.224;6.580;2023-05-19T02:41:08;7.90;99.90
52030;DHT22;38043;53.224;6.580;2023-05-19T02:43:34;7.90;99.90
52030;DHT22;38043;53.224;6.580;2023-05-19T02:46:00;7.90;99.90
52030;DHT22;38043;53.224;6.580;2023-05-19T02:48:26;7.80;99.90
52030;DHT22;38043;53.224;6.580;2023-05-19T02:50:51;7.80;99.90
52030;DHT22;38043;53.224;6.580;2023-05-19T02:53:17;7.90;99.90
52030;DHT22;38043;53.224;6.580;2023-05-19T02:55:42;8.00;99.90
52030;DHT22;38043;53.224;6.580;2023-05-19T02:58:08;7.80;99.90
52030;DHT22;38043;53.224;6.580;2023-05-19T03:00:33;7.70;99.90
52030;DHT22;38043;53.224;6.580;2023-05-19T03:02:59;7.70;99.90
52030;DHT22;38043;53.224;6.580;2023-05-19T03:05:27;7.70;99.90
52030;DHT22;38043;53.224;6.580;2023-05-19T03:07:54;7.60;99.90
52030;DHT22;38043;53.224;6.580;2023-05-19T03:10:20;7.60;99.90
52030;DHT22;38043;53.224;6.580;2023-05-19T03:12:45;7.60;99.90
52030;DHT22;38043;53.224;6.580;2023-05-19T03:15:11;7.50;99.90
52030;DHT22;38043;53.224;6.580;2023-05-19T03:17:39;7.50;99.90
52030;DHT22;38043;53.224;6.580;2023-05-19T03:20:05;7.50;99.90
52030;DHT22;38043;53.224;6.580;2023-05-19T03:22:31;7.50;99.90
52030;DHT22;38043;53.224;6.580;2023-05-19T03:24:57;7.50;99.90
52030;DHT22;38043;53.224;6.580;2023-05-19T03:27:23;7.40;99.90
52030;DHT22;38043;53.224;6.580;2023-05-19T03:29:48;7.40;99.90
52030;DHT22;38043;53.224;6.580;2023-05-19T03:32:14;7.40;99.90
52030;DHT22;38043;53.224;6.580;2023-05-19T03:34:43;7.50;99.90
52030;DHT22;38043;53.224;6.580;2023-05-19T03:37:08;7.50;99.90
52030;DHT22;38043;53.224;6.580;2023-05-19T03:39:35;7.50;99.90
52030;DHT22;38043;53.224;6.580;2023-05-19T03:42:00;7.50;99.90
52030;DHT22;38043;53.224;6.580;2023-05-19T03:44:26;7.50;99.90
52030;DHT22;38043;53.224;6.580;2023-05-19T03:46:52;7.50;99.90
52030;DHT22;38043;53.224;6.580;2023-05-19T03:49:17;7.50;99.90
52030;DHT22;38043;53.224;6.580;2023-05-19T03:51:43;7.50;99.90
52030;DHT22;38043;53.224;6.580;2023-05-19T03:54:08;7.50;99.90
52030;DHT22;38043;53.224;6.580;2023-05-19T03:56:36;7.50;99.90
52030;DHT22;38043;53.224;6.580;2023-05-19T03:59:02;7.40;99.90
52030;DHT22;38043;53.224;6.580;2023-05-19T04:01:30;7.50;99.90
52030;DHT22;38043;53.224;6.580;2023-05-19T04:03:55;7.50;99.90
52030;DHT22;38043;53.224;6.580;2023-05-19T04:06:21;7.60;99.90
52030;DHT22;38043;53.224;6.580;2023-05-19T04:08:47;7.50;99.90
52030;DHT22;38043;53.224;6.580;2023-05-19T04:11:13;7.50;99.90
52030;DHT22;38043;53.224;6.580;2023-05-19T04:13:44;7.50;99.90
52030;DHT22;38043;53.224;6.580;2023-05-19T04:16:10;7.50;99.90
52030;DHT22;38043;53.224;6.580;2023-05-19T04:18:35;7.60;99.90
52030;DHT22;38043;53.224;6.580;2023-05-19T04:21:01;7.60;99.90
52030;DHT22;38043;53.224;6.580;2023-05-19T04:23:27;7.60;99.90
52030;DHT22;38043;53.224;6.580;2023-05-19T04:25:52;7.60;99.90
52030;DHT22;38043;53.224;6.580;2023-05-19T04:28:18;7.60;99.90
52030;DHT22;38043;53.224;6.580;2023-05-19T04:30:44;7.70;99.90
52030;DHT22;38043;53.224;6.580;2023-05-19T04:33:11;7.70;99.90
52030;DHT22;38043;53.224;6.580;2023-05-19T04:35:37;7.90;99.90
52030;DHT22;38043;53.224;6.580;2023-05-19T04:38:04;7.80;99.90
52030;DHT22;38043;53.224;6.580;2023-05-19T04:40:29;7.90;99.90
52030;DHT22;38043;53.224;6.580;2023-05-19T04:42:55;7.90;99.90
52030;DHT22;38043;53.224;6.580;2023-05-19T04:45:21;8.00;99.90
52030;DHT22;38043;53.224;6.580;2023-05-19T04:47:47;8.10;99.90
52030;DHT22;38043;53.224;6.580;2023-05-19T04:50:13;8.10;99.90
52030;DHT22;38043;53.224;6.580;2023-05-19T04:52:39;8.20;99.90
52030;DHT22;38043;53.224;6.580;2023-05-19T04:55:06;8.30;99.90
52030;DHT22;38043;53.224;6.580;2023-05-19T04:57:32;8.40;99.90
52030;DHT22;38043;53.224;6.580;2023-05-19T04:59:58;8.60;99.90
52030;DHT22;38043;53.224;6.580;2023-05-19T05:02:24;8.80;99.90
52030;DHT22;38043;53.224;6.580;2023-05-19T05:04:51;9.00;99.90
52030;DHT22;38043;53.224;6.580;2023-05-19T05:07:21;9.10;99.90
52030;DHT22;38043;53.224;6.580;2023-05-19T05:09:47;9.20;99.90
52030;DHT22;38043;53.224;6.580;2023-05-19T05:12:13;9.40;99.90
52030;DHT22;38043;53.224;6.580;2023-05-19T05:14:39;9.70;99.90
52030;DHT22;38043;53.224;6.580;2023-05-19T05:17:04;9.90;99.90
52030;DHT22;38043;53.224;6.580;2023-05-19T05:19:30;10.00;99.90
52030;DHT22;38043;53.224;6.580;2023-05-19T05:21:56;10.20;99.90
52030;DHT22;38043;53.224;6.580;2023-05-19T05:24:22;10.40;99.90
52030;DHT22;38043;53.224;6.580;2023-05-19T05:26:48;10.50;99.90
52030;DHT22;38043;53.224;6.580;2023-05-19T05:29:14;10.60;99.90
52030;DHT22;38043;53.224;6.580;2023-05-19T05:31:39;10.80;99.90
52030;DHT22;38043;53.224;6.580;2023-05-19T05:34:05;11.00;99.90
52030;DHT22;38043;53.224;6.580;2023-05-19T05:36:30;11.10;99.90
52030;DHT22;38043;53.224;6.580;2023-05-19T05:38:56;11.30;99.90
52030;DHT22;38043;53.224;6.580;2023-05-19T05:41:23;11.50;99.90
52030;DHT22;38043;53.224;6.580;2023-05-19T05:43:49;11.70;99.90
52030;DHT22;38043;53.224;6.580;2023-05-19T05:46:15;12.00;99.90
52030;DHT22;38043;53.224;6.580;2023-05-19T05:48:41;12.20;99.90
52030;DHT22;38043;53.224;6.580;2023-05-19T05:51:10;12.30;99.90
52030;DHT22;38043;53.224;6.580;2023-05-19T05:53:36;12.40;99.90
52030;DHT22;38043;53.224;6.580;2023-05-19T05:56:04;12.50;99.90
52030;DHT22;38043;53.224;6.580;2023-05-19T05:58:30;12.80;99.90
52030;DHT22;38043;53.224;6.580;2023-05-19T06:00:57;13.00;99.90
52030;DHT22;38043;53.224;6.580;2023-05-19T06:03:22;13.30;99.90
52030;DHT22;38043;53.224;6.580;2023-05-19T06:05:48;13.40;99.90
52030;DHT22;38043;53.224;6.580;2023-05-19T06:08:14;13.40;99.90
52030;DHT22;38043;53.224;6.580;2023-05-19T06:10:41;13.30;99.90
52030;DHT22;38043;53.224;6.580;2023-05-19T06:13:07;13.20;99.90
52030;DHT22;38043;53.224;6.580;2023-05-19T06:15:33;13.00;99.90
52030;DHT22;38043;53.224;6.580;2023-05-19T06:18:01;13.00;99.90
52030;DHT22;38043;53.224;6.580;2023-05-19T06:20:27;12.90;99.90
52030;DHT22;38043;53.224;6.580;2023-05-19T06:22:52;12.80;99.90
52030;DHT22;38043;53.224;6.580;2023-05-19T06:25:18;12.90;99.90
52030;DHT22;38043;53.224;6.580;2023-05-19T06:27:45;13.00;99.90
52030;DHT22;38043;53.224;6.580;2023-05-19T06:30:10;13.00;99.90
52030;DHT22;38043;53.224;6.580;2023-05-19T06:32:36;13.10;99.90
52030;DHT22;38043;53.224;6.580;2023-05-19T06:35:02;13.20;99.90
52030;DHT22;38043;53.224;6.580;2023-05-19T06:37:27;13.20;99.90
52030;DHT22;38043;53.224;6.580;2023-05-19T06:39:53;13.30;99.90
52030;DHT22;38043;53.224;6.580;2023-05-19T06:42:19;13.50;99.90
52030;DHT22;38043;53.224;6.580;2023-05-19T06:44:48;13.60;99.90
52030;DHT22;38043;53.224;6.580;2023-05-19T06:47:14;13.60;99.90
52030;DHT22;38043;53.224;6.580;2023-05-19T06:49:40;13.60;99.90
52030;DHT22;38043;53.224;6.580;2023-05-19T06:52:06;13.50;99.90
52030;DHT22;38043;53.224;6.580;2023-05-19T06:54:32;13.50;99.90
52030;DHT22;38043;53.224;6.580;2023-05-19T06:56:57;13.60;99.90
52030;DHT22;38043;53.224;6.580;2023-05-19T06:59:23;13.80;99.90
52030;DHT22;38043;53.224;6.580;2023-05-19T07:01:48;13.90;99.90
52030;DHT22;38043;53.224;6.580;2023-05-19T07:04:14;13.90;99.90
52030;DHT22;38043;53.224;6.580;2023-05-19T07:06:40;14.00;99.90
52030;DHT22;38043;53.224;6.580;2023-05-19T07:09:05;14.10;99.90
52030;DHT22;38043;53.224;6.580;2023-05-19T07:11:31;14.20;99.90
52030;DHT22;38043;53.224;6.580;2023-05-19T07:13:57;14.30;99.90
52030;DHT22;38043;53.224;6.580;2023-05-19T07:16:22;14.30;99.90
52030;DHT22;38043;53.224;6.580;2023-05-19T07:18:48;14.30;99.90
52030;DHT22;38043;53.224;6.580;2023-05-19T07:21:16;14.40;99.90
52030;DHT22;38043;53.224;6.580;2023-05-19T07:23:41;14.50;99.90
52030;DHT22;38043;53.224;6.580;2023-05-19T07:26:07;14.60;99.90
52030;DHT22;38043;53.224;6.580;2023-05-19T07:28:33;14.70;99.90
52030;DHT22;38043;53.224;6.580;2023-05-19T07:30:59;14.80;99.90
52030;DHT22;38043;53.224;6.580;2023-05-19T07:33:25;14.90;99.90
52030;DHT22;38043;53.224;6.580;2023-05-19T07:35:51;14.90;99.90
52030;DHT22;38043;53.224;6.580;2023-05-19T07:38:18;15.00;99.90
52030;DHT22;38043;53.224;6.580;2023-05-19T07:40:43;15.00;99.90
52030;DHT22;38043;53.224;6.580;2023-05-19T07:43:09;15.20;99.90
52030;DHT22;38043;53.224;6.580;2023-05-19T07:45:36;15.20;99.90
52030;DHT22;38043;53.224;6.580;2023-05-19T07:48:02;15.20;99.90
52030;DHT22;38043;53.224;6.580;2023-05-19T07:50:28;15.30;99.90
52030;DHT22;38043;53.224;6.580;2023-05-19T07:52:53;15.30;99.90
52030;DHT22;38043;53.224;6.580;2023-05-19T07:55:19;15.50;99.90
52030;DHT22;38043;53.224;6.580;2023-05-19T07:57:50;15.60;99.90
52030;DHT22;38043;53.224;6.580;2023-05-19T08:00:16;15.70;99.90
52030;DHT22;38043;53.224;6.580;2023-05-19T08:02:47;15.70;99.90
52030;DHT22;38043;53.224;6.580;2023-05-19T08:05:13;15.90;99.90
52030;DHT22;38043;53.224;6.580;2023-05-19T08:07:39;16.00;99.90
52030;DHT22;38043;53.224;6.580;2023-05-19T08:10:04;16.10;99.90
52030;DHT22;38043;53.224;6.580;2023-05-19T08:12:30;16.10;99.50
52030;DHT22;38043;53.224;6.580;2023-05-19T08:14:56;16.20;99.70
52030;DHT22;38043;53.224;6.580;2023-05-19T08:17:22;16.10;99.90
52030;DHT22;38043;53.224;6.580;2023-05-19T08:19:48;16.10;99.90
52030;DHT22;38043;53.224;6.580;2023-05-19T08:22:13;16.20;99.90
52030;DHT22;38043;53.224;6.580;2023-05-19T08:24:39;16.40;99.90
52030;DHT22;38043;53.224;6.580;2023-05-19T08:27:06;16.50;98.30
52030;DHT22;38043;53.224;6.580;2023-05-19T08:29:32;16.40;98.20
52030;DHT22;38043;53.224;6.580;2023-05-19T08:31:58;16.50;97.80
52030;DHT22;38043;53.224;6.580;2023-05-19T08:34:23;16.40;97.30
52030;DHT22;38043;53.224;6.580;2023-05-19T08:36:49;16.30;97.80
52030;DHT22;38043;53.224;6.580;2023-05-19T08:39:14;16.40;98.30
52030;DHT22;38043;53.224;6.580;2023-05-19T08:41:42;16.40;98.10
52030;DHT22;38043;53.224;6.580;2023-05-19T08:44:08;16.60;98.10
52030;DHT22;38043;53.224;6.580;2023-05-19T08:46:33;16.70;98.00
52030;DHT22;38043;53.224;6.580;2023-05-19T08:49:08;16.80;97.50
52030;DHT22;38043;53.224;6.580;2023-05-19T08:51:38;16.80;96.30
52030;DHT22;38043;53.224;6.580;2023-05-19T08:54:08;16.70;95.90
52030;DHT22;38043;53.224;6.580;2023-05-19T08:56:36;16.50;96.50
52030;DHT22;38043;53.224;6.580;2023-05-19T08:59:03;16.50;97.90
52030;DHT22;38043;53.224;6.580;2023-05-19T09:01:29;16.70;97.70
52030;DHT22;38043;53.224;6.580;2023-05-19T09:03:54;16.80;97.30
52030;DHT22;38043;53.224;6.580;2023-05-19T09:06:20;17.00;96.00
52030;DHT22;38043;53.224;6.580;2023-05-19T09:08:46;17.00;96.20
52030;DHT22;38043;53.224;6.580;2023-05-19T09:11:12;17.00;96.30
52030;DHT22;38043;53.224;6.580;2023-05-19T09:13:39;17.10;96.70
52030;DHT22;38043;53.224;6.580;2023-05-19T09:16:05;17.10;95.30
52030;DHT22;38043;53.224;6.580;2023-05-19T09:18:30;17.00;95.90
52030;DHT22;38043;53.224;6.580;2023-05-19T09:20:57;17.10;96.30
52030;DHT22;38043;53.224;6.580;2023-05-19T09:23:27;17.20;95.60
52030;DHT22;38043;53.224;6.580;2023-05-19T09:25:54;17.20;95.10
52030;DHT22;38043;53.224;6.580;2023-05-19T09:28:27;17.20;95.50
52030;DHT22;38043;53.224;6.580;2023-05-19T09:30:58;17.20;94.90
52030;DHT22;38043;53.224;6.580;2023-05-19T09:33:24;17.20;95.00
52030;DHT22;38043;53.224;6.580;2023-05-19T09:35:49;17.20;94.40
52030;DHT22;38043;53.224;6.580;2023-05-19T09:38:18;17.30;94.40
52030;DHT22;38043;53.224;6.580;2023-05-19T09:40:44;17.30;94.70
52030;DHT22;38043;53.224;6.580;2023-05-19T09:43:12;17.30;94.70
52030;DHT22;38043;53.224;6.580;2023-05-19T09:45:37;17.30;93.60
52030;DHT22;38043;53.224;6.580;2023-05-19T09:48:03;17.20;93.40
52030;DHT22;38043;53.224;6.580;2023-05-19T09:50:30;17.10;93.70
52030;DHT22;38043;53.224;6.580;2023-05-19T09:52:56;17.20;93.80
52030;DHT22;38043;53.224;6.580;2023-05-19T09:55:24;17.40;94.50
52030;DHT22;38043;53.224;6.580;2023-05-19T09:57:50;17.50;92.90
52030;DHT22;38043;53.224;6.580;2023-05-19T10:00:17;17.50;92.10
52030;DHT22;38043;53.224;6.580;2023-05-19T10:02:43;17.50;93.20
52030;DHT22;38043;53.224;6.580;2023-05-19T10:05:10;17.50;92.50
52030;DHT22;38043;53.224;6.580;2023-05-19T10:07:37;17.50;92.80
52030;DHT22;38043;53.224;6.580;2023-05-19T10:10:06;17.80;94.00
52030;DHT22;38043;53.224;6.580;2023-05-19T10:12:34;18.00;88.50
52030;DHT22;38043;53.224;6.580;2023-05-19T10:15:00;18.00;88.30
52030;DHT22;38043;53.224;6.580;2023-05-19T10:17:26;18.20;89.70
52030;DHT22;38043;53.224;6.580;2023-05-19T10:19:52;18.30;83.40
52030;DHT22;38043;53.224;6.580;2023-05-19T10:22:19;18.50;83.70
52030;DHT22;38043;53.224;6.580;2023-05-19T10:24:44;18.50;83.20
52030;DHT22;38043;53.224;6.580;2023-05-19T10:27:10;18.60;83.40
52030;DHT22;38043;53.224;6.580;2023-05-19T10:29:39;18.80;84.80
52030;DHT22;38043;53.224;6.580;2023-05-19T10:32:12;19.00;81.30
52030;DHT22;38043;53.224;6.580;2023-05-19T10:39:58;19.40;81.40
52030;DHT22;38043;53.224;6.580;2023-05-19T10:47:21;19.30;78.00
52030;DHT22;38043;53.224;6.580;2023-05-19T10:49:47;19.30;79.70
52030;DHT22;38043;53.224;6.580;2023-05-19T10:52:19;19.40;78.10
52030;DHT22;38043;53.224;6.580;2023-05-19T10:54:49;19.50;78.50
52030;DHT22;38043;53.224;6.580;2023-05-19T10:57:15;19.70;77.50
52030;DHT22;38043;53.224;6.580;2023-05-19T10:59:41;19.60;77.20
52030;DHT22;38043;53.224;6.580;2023-05-19T11:02:08;19.90;78.40
52030;DHT22;38043;53.224;6.580;2023-05-19T11:04:44;20.00;78.40
52030;DHT22;38043;53.224;6.580;2023-05-19T11:07:18;20.00;73.40
52030;DHT22;38043;53.224;6.580;2023-05-19T11:09:51;20.20;78.50
52030;DHT22;38043;53.224;6.580;2023-05-19T11:12:20;20.10;73.20
52030;DHT22;38043;53.224;6.580;2023-05-19T11:14:51;20.40;76.70
52030;DHT22;38043;53.224;6.580;2023-05-19T11:17:17;20.50;74.90
52030;DHT22;38043;53.224;6.580;2023-05-19T11:19:53;20.60;73.70
52030;DHT22;38043;53.224;6.580;2023-05-19T11:22:25;21.00;73.60
52030;DHT22;38043;53.224;6.580;2023-05-19T11:24:52;21.00;74.60
52030;DHT22;38043;53.224;6.580;2023-05-19T11:27:23;21.30;76.20
52030;DHT22;38043;53.224;6.580;2023-05-19T11:29:49;21.60;73.30
52030;DHT22;38043;53.224;6.580;2023-05-19T11:32:17;21.10;72.20
52030;DHT22;38043;53.224;6.580;2023-05-19T11:34:44;21.20;73.30
52030;DHT22;38043;53.224;6.580;2023-05-19T11:37:10;21.00;73.80
52030;DHT22;38043;53.224;6.580;2023-05-19T11:39:36;21.00;75.10
52030;DHT22;38043;53.224;6.580;2023-05-19T11:42:01;21.10;71.50
52030;DHT22;38043;53.224;6.580;2023-05-19T11:44:27;20.90;73.30
52030;DHT22;38043;53.224;6.580;2023-05-19T11:46:52;21.00;73.10
52030;DHT22;38043;53.224;6.580;2023-05-19T11:49:18;21.00;75.30
52030;DHT22;38043;53.224;6.580;2023-05-19T11:51:47;21.10;74.40
52030;DHT22;38043;53.224;6.580;2023-05-19T11:54:12;21.40;73.30
52030;DHT22;38043;53.224;6.580;2023-05-19T11:56:41;21.30;70.50
52030;DHT22;38043;53.224;6.580;2023-05-19T11:59:10;21.20;72.20
52030;DHT22;38043;53.224;6.580;2023-05-19T12:01:36;21.20;73.30
52030;DHT22;38043;53.224;6.580;2023-05-19T12:04:02;21.30;74.30
52030;DHT22;38043;53.224;6.580;2023-05-19T12:06:28;21.40;71.80
52030;DHT22;38043;53.224;6.580;2023-05-19T12:08:54;21.30;71.20
52030;DHT22;38043;53.224;6.580;2023-05-19T12:11:20;21.00;71.90
52030;DHT22;38043;53.224;6.580;2023-05-19T12:13:46;21.00;70.80
52030;DHT22;38043;53.224;6.580;2023-05-19T12:16:11;20.90;73.10
52030;DHT22;38043;53.224;6.580;2023-05-19T12:18:37;20.90;72.30
52030;DHT22;38043;53.224;6.580;2023-05-19T12:21:03;21.00;72.50
52030;DHT22;38043;53.224;6.580;2023-05-19T12:23:29;21.10;73.70
52030;DHT22;38043;53.224;6.580;2023-05-19T12:25:58;21.10;72.90
52030;DHT22;38043;53.224;6.580;2023-05-19T12:28:23;21.20;72.40
52030;DHT22;38043;53.224;6.580;2023-05-19T12:30:49;21.30;71.60
52030;DHT22;38043;53.224;6.580;2023-05-19T12:33:20;21.50;72.30
52030;DHT22;38043;53.224;6.580;2023-05-19T12:35:47;21.30;71.30
52030;DHT22;38043;53.224;6.580;2023-05-19T12:38:14;21.20;71.30
52030;DHT22;38043;53.224;6.580;2023-05-19T12:40:40;21.00;71.60
52030;DHT22;38043;53.224;6.580;2023-05-19T12:43:06;21.10;74.60
52030;DHT22;38043;53.224;6.580;2023-05-19T12:45:34;21.10;73.80
52030;DHT22;38043;53.224;6.580;2023-05-19T12:48:03;21.10;74.20
52030;DHT22;38043;53.224;6.580;2023-05-19T12:50:30;21.00;73.10
52030;DHT22;38043;53.224;6.580;2023-05-19T12:52:56;21.10;75.10
52030;DHT22;38043;53.224;6.580;2023-05-19T12:55:24;21.00;72.60
52030;DHT22;38043;53.224;6.580;2023-05-19T12:57:50;20.90;74.30
52030;DHT22;38043;53.224;6.580;2023-05-19T13:00:17;20.90;73.40
52030;DHT22;38043;53.224;6.580;2023-05-19T13:02:58;21.10;77.20
52030;DHT22;38043;53.224;6.580;2023-05-19T13:05:28;21.10;74.20
52030;DHT22;38043;53.224;6.580;2023-05-19T13:08:05;21.30;75.70
52030;DHT22;38043;53.224;6.580;2023-05-19T13:10:31;21.40;74.70
52030;DHT22;38043;53.224;6.580;2023-05-19T13:12:57;21.50;73.70
52030;DHT22;38043;53.224;6.580;2023-05-19T13:15:25;21.50;74.60
52030;DHT22;38043;53.224;6.580;2023-05-19T13:17:51;21.70;73.20
52030;DHT22;38043;53.224;6.580;2023-05-19T13:20:17;21.80;71.30
52030;DHT22;38043;53.224;6.580;2023-05-19T13:22:42;21.80;73.50
52030;DHT22;38043;53.224;6.580;2023-05-19T13:25:08;21.70;74.20
52030;DHT22;38043;53.224;6.580;2023-05-19T13:27:34;21.50;71.20
52030;DHT22;38043;53.224;6.580;2023-05-19T13:30:00;21.20;72.10
52030;DHT22;38043;53.224;6.580;2023-05-19T13:32:28;20.90;73.70
52030;DHT22;38043;53.224;6.580;2023-05-19T13:34:55;20.70;73.10
52030;DHT22;38043;53.224;6.580;2023-05-19T13:37:21;20.60;76.10
52030;DHT22;38043;53.224;6.580;2023-05-19T13:39:47;20.40;77.40
52030;DHT22;38043;53.224;6.580;2023-05-19T13:42:12;20.30;77.50
52030;DHT22;38043;53.224;6.580;2023-05-19T13:44:38;20.20;79.50
52030;DHT22;38043;53.224;6.580;2023-05-19T13:47:03;20.10;81.00
52030;DHT22;38043;53.224;6.580;2023-05-19T13:49:29;20.20;82.80
52030;DHT22;38043;53.224;6.580;2023-05-19T13:51:55;20.40;80.60
52030;DHT22;38043;53.224;6.580;2023-05-19T13:54:24;20.40;80.60
52030;DHT22;38043;53.224;6.580;2023-05-19T13:56:49;20.60;81.30
52030;DHT22;38043;53.224;6.580;2023-05-19T13:59:15;20.30;80.90
52030;DHT22;38043;53.224;6.580;2023-05-19T14:01:41;20.40;82.80
52030;DHT22;38043;53.224;6.580;2023-05-19T14:04:08;20.50;84.40
52030;DHT22;38043;53.224;6.580;2023-05-19T14:06:33;20.80;84.20
52030;DHT22;38043;53.224;6.580;2023-05-19T14:08:59;20.90;82.70
52030;DHT22;38043;53.224;6.580;2023-05-19T14:11:25;20.70;83.00
52030;DHT22;38043;53.224;6.580;2023-05-19T14:13:50;20.90;84.50
52030;DHT22;38043;53.224;6.580;2023-05-19T14:16:16;20.80;83.30
52030;DHT22;38043;53.224;6.580;2023-05-19T14:18:42;20.90;83.50
52030;DHT22;38043;53.224;6.580;2023-05-19T14:21:07;21.00;83.50
52030;DHT22;38043;53.224;6.580;2023-05-19T14:23:33;21.10;83.30
52030;DHT22;38043;53.224;6.580;2023-05-19T14:26:01;21.20;84.00
52030;DHT22;38043;53.224;6.580;2023-05-19T14:28:27;21.30;83.80
52030;DHT22;38043;53.224;6.580;2023-05-19T14:30:53;21.30;84.90
52030;DHT22;38043;53.224;6.580;2023-05-19T14:33:20;21.60;83.80
52030;DHT22;38043;53.224;6.580;2023-05-19T14:35:51;21.50;81.60
52030;DHT22;38043;53.224;6.580;2023-05-19T14:38:17;21.30;82.70
52030;DHT22;38043;53.224;6.580;2023-05-19T14:40:43;21.20;83.00
52030;DHT22;38043;53.224;6.580;2023-05-19T14:43:08;20.90;83.20
52030;DHT22;38043;53.224;6.580;2023-05-19T14:45:34;20.90;84.40
52030;DHT22;38043;53.224;6.580;2023-05-19T14:48:00;20.80;86.40
52030;DHT22;38043;53.224;6.580;2023-05-19T14:50:28;21.10;86.20
52030;DHT22;38043;53.224;6.580;2023-05-19T14:52:54;21.40;85.90
52030;DHT22;38043;53.224;6.580;2023-05-19T14:55:19;21.60;85.20
52030;DHT22;38043;53.224;6.580;2023-05-19T14:57:45;21.80;84.20
52030;DHT22;38043;53.224;6.580;2023-05-19T15:00:11;21.90;84.50
52030;DHT22;38043;53.224;6.580;2023-05-19T15:02:37;22.10;84.20
52030;DHT22;38043;53.224;6.580;2023-05-19T15:05:02;22.50;83.20
52030;DHT22;38043;53.224;6.580;2023-05-19T15:07:28;22.40;82.10
52030;DHT22;38043;53.224;6.580;2023-05-19T15:09:53;22.10;83.00
52030;DHT22;38043;53.224;6.580;2023-05-19T15:12:19;21.90;83.70
52030;DHT22;38043;53.224;6.580;2023-05-19T15:14:45;21.60;84.40
52030;DHT22;38043;53.224;6.580;2023-05-19T15:17:11;21.40;84.20
52030;DHT22;38043;53.224;6.580;2023-05-19T15:19:36;20.90;85.90
52030;DHT22;38043;53.224;6.580;2023-05-19T15:22:02;21.30;85.50
52030;DHT22;38043;53.224;6.580;2023-05-19T15:24:27;20.70;86.50
52030;DHT22;38043;53.224;6.580;2023-05-19T15:26:53;20.00;88.40
52030;DHT22;38043;53.224;6.580;2023-05-19T15:29:19;19.90;90.00
52030;DHT22;38043;53.224;6.580;2023-05-19T15:31:45;19.50;90.70
52030;DHT22;38043;53.224;6.580;2023-05-19T15:34:13;19.30;91.40
52030;DHT22;38043;53.224;6.580;2023-05-19T15:36:39;19.30;91.20
52030;DHT22;38043;53.224;6.580;2023-05-19T15:39:04;19.00;91.40
52030;DHT22;38043;53.224;6.580;2023-05-19T15:41:30;18.90;92.00
52030;DHT22;38043;53.224;6.580;2023-05-19T15:43:56;18.70;92.60
52030;DHT22;38043;53.224;6.580;2023-05-19T15:46:24;18.60;92.50
52030;DHT22;38043;53.224;6.580;2023-05-19T15:48:50;18.30;92.80
52030;DHT22;38043;53.224;6.580;2023-05-19T15:51:16;18.20;93.30
52030;DHT22;38043;53.224;6.580;2023-05-19T15:53:44;18.10;94.10
52030;DHT22;38043;53.224;6.580;2023-05-19T15:56:10;18.00;94.30
52030;DHT22;38043;53.224;6.580;2023-05-19T15:58:35;17.90;94.80